Time;durP1;ratioP1;P1;durP2;ratioP2;P2;SDS_P1;SDS_P2;PMS_P1;PMS_P2;Temp;Humidity;BMP_temperature;BMP_pressure;BME280_temperature;BME280_humidity;BME280_pressure;Samples;Min_cycle;Max_cycle;Signal;HPM_P1;HPM_P2
2021/01/17 00:01:55;;;;;;;36.43;18.40;;;-0.70;99.90;;;;;;4979624;28;20048;-61
2021/01/17 00:04:20;;;;;;;28.77;15.80;;;-0.60;99.90;;;;;;5007001;28;20088;-64
2021/01/17 00:06:46;;;;;;;31.70;17.20;;;-0.70;99.90;;;;;;5008638;28;20042;-63
2021/01/17 00:09:11;;;;;;;31.47;16.87;;;-0.70;99.90;;;;;;5006732;28;20022;-62
2021/01/17 00:11:37;;;;;;;30.70;16.87;;;-0.70;99.90;;;;;;5009276;28;20484;-62
2021/01/17 00:14:03;;;;;;;35.20;17.33;;;-0.70;99.90;;;;;;5008902;28;20022;-62
2021/01/17 00:16:28;;;;;;;32.83;17.83;;;-0.70;99.90;;;;;;5005971;28;20088;-61
2021/01/17 00:18:54;;;;;;;34.03;17.30;;;-0.60;99.90;;;;;;5006651;28;20029;-63
2021/01/17 00:21:20;;;;;;;31.53;16.97;;;-0.70;99.90;;;;;;5009140;28;20436;-63
2021/01/17 00:23:45;;;;;;;34.43;16.53;;;-0.70;99.90;;;;;;5008714;28;20480;-63
2021/01/17 00:26:11;;;;;;;29.33;15.63;;;-0.70;99.90;;;;;;4999405;28;20018;-62
2021/01/17 00:28:36;;;;;;;31.60;16.53;;;-0.60;99.90;;;;;;5007710;28;20030;-64
2021/01/17 00:31:02;;;;;;;31.73;16.70;;;-0.60;99.90;;;;;;5007138;28;20581;-63
2021/01/17 00:33:27;;;;;;;32.53;17.07;;;-0.70;99.90;;;;;;5009398;28;20021;-64
2021/01/17 00:35:53;;;;;;;30.83;16.60;;;-0.70;99.90;;;;;;5009815;28;20026;-61
2021/01/17 00:38:19;;;;;;;34.30;17.30;;;-0.70;99.90;;;;;;5007322;28;20033;-64
2021/01/17 00:40:44;;;;;;;33.63;17.90;;;-0.70;99.90;;;;;;5002669;28;20034;-63
2021/01/17 00:43:10;;;;;;;33.43;16.73;;;-0.80;99.90;;;;;;5008435;28;20046;-64
2021/01/17 00:45:36;;;;;;;35.00;17.77;;;-0.70;99.90;;;;;;5011410;28;20021;-62
2021/01/17 00:48:01;;;;;;;35.97;17.27;;;-0.80;99.90;;;;;;5013034;28;20022;-62
2021/01/17 00:50:27;;;;;;;40.23;17.77;;;-0.80;99.90;;;;;;5013119;28;20034;-64
2021/01/17 00:52:54;;;;;;;32.93;16.90;;;-0.80;99.90;;;;;;5007422;28;20080;-63
2021/01/17 00:55:19;;;;;;;33.17;16.83;;;-0.70;99.90;;;;;;5013324;28;20017;-64
2021/01/17 00:57:45;;;;;;;35.23;17.00;;;-0.80;99.90;;;;;;5010442;28;20040;-62
2021/01/17 01:00:13;;;;;;;32.33;15.87;;;-0.70;99.90;;;;;;4992857;28;20034;-62
2021/01/17 01:02:40;;;;;;;31.53;17.17;;;-0.70;99.90;;;;;;5012832;28;20033;-63
2021/01/17 01:05:07;;;;;;;31.43;16.40;;;-0.70;99.90;;;;;;5012867;28;20040;-62
2021/01/17 01:07:32;;;;;;;32.77;16.83;;;-0.70;99.90;;;;;;5011353;28;20049;-63
2021/01/17 01:09:58;;;;;;;37.97;19.57;;;-0.70;99.90;;;;;;5012132;28;20504;-62
2021/01/17 01:12:23;;;;;;;36.83;17.03;;;-0.70;99.90;;;;;;5011213;28;20029;-62
2021/01/17 01:14:49;;;;;;;33.07;17.40;;;-0.70;99.90;;;;;;5011716;28;20558;-63
2021/01/17 01:17:15;;;;;;;34.00;17.10;;;-0.70;99.90;;;;;;5011661;28;20032;-63
2021/01/17 01:19:43;;;;;;;32.30;16.37;;;-0.70;99.90;;;;;;5012301;28;20395;-63
2021/01/17 01:22:09;;;;;;;36.47;16.90;;;-0.80;99.90;;;;;;5008324;28;20488;-63
2021/01/17 01:24:34;;;;;;;32.27;16.27;;;-0.80;99.90;;;;;;5005914;28;20080;-64
2021/01/17 01:27:00;;;;;;;34.33;16.87;;;-0.70;99.90;;;;;;5012767;28;20038;-63
2021/01/17 01:29:26;;;;;;;34.20;17.20;;;-0.80;99.90;;;;;;5011215;28;20100;-63
2021/01/17 01:31:51;;;;;;;32.10;16.77;;;-0.80;99.90;;;;;;5004885;28;20076;-63
2021/01/17 01:34:17;;;;;;;33.83;18.03;;;-0.80;99.90;;;;;;5011516;28;20796;-63
2021/01/17 01:36:43;;;;;;;36.27;16.70;;;-0.70;99.90;;;;;;5008195;28;20484;-63
2021/01/17 01:39:10;;;;;;;34.57;18.20;;;-0.70;99.90;;;;;;5011123;28;20088;-64
2021/01/17 01:41:39;;;;;;;34.07;17.97;;;-0.70;99.90;;;;;;4968385;28;20048;-63
2021/01/17 01:44:06;;;;;;;37.87;18.87;;;-0.70;99.90;;;;;;5009906;28;20025;-62
2021/01/17 01:46:32;;;;;;;34.23;17.77;;;-0.70;99.90;;;;;;5007863;28;20053;-63
2021/01/17 01:49:00;;;;;;;33.73;17.47;;;-0.70;99.90;;;;;;5008180;28;20105;-63
2021/01/17 01:51:27;;;;;;;35.47;17.53;;;-0.70;99.90;;;;;;5011891;28;20028;-63
2021/01/17 01:53:56;;;;;;;36.53;18.77;;;-0.70;99.90;;;;;;5009337;28;20076;-60
2021/01/17 01:56:25;;;;;;;35.77;17.83;;;-0.70;99.90;;;;;;5005924;28;20022;-64
2021/01/17 01:58:52;;;;;;;38.93;20.20;;;-0.70;99.90;;;;;;5004151;28;20030;-64
2021/01/17 02:01:19;;;;;;;35.77;18.80;;;-0.70;99.90;;;;;;4990604;28;20076;-63
2021/01/17 02:03:46;;;;;;;37.13;19.03;;;-0.70;99.90;;;;;;5024092;28;20045;-63
2021/01/17 02:06:12;;;;;;;35.97;19.17;;;-0.70;99.90;;;;;;5009652;28;20408;-61
2021/01/17 02:09:09;;;;;;;37.13;19.13;;;-0.60;99.90;;;;;;5006880;28;20022;-60
2021/01/17 02:11:46;;;;;;;35.60;17.47;;;-0.70;99.90;;;;;;5006699;28;20569;-63
2021/01/17 02:14:26;;;;;;;38.57;19.03;;;-0.70;99.90;;;;;;5008099;28;20112;-63
2021/01/17 02:16:55;;;;;;;38.43;18.57;;;-0.80;99.90;;;;;;5009347;28;20030;-64
2021/01/17 02:19:24;;;;;;;37.17;18.60;;;-0.70;99.90;;;;;;5004905;28;20018;-64
2021/01/17 02:22:10;;;;;;;36.10;18.57;;;-0.70;99.90;;;;;;5005568;28;20018;-64
2021/01/17 02:24:57;;;;;;;38.43;18.30;;;-0.70;99.90;;;;;;5021254;28;20084;-59
2021/01/17 02:27:24;;;;;;;42.17;20.37;;;-0.70;99.90;;;;;;5009964;28;20088;-63
2021/01/17 02:29:50;;;;;;;43.43;22.00;;;-0.70;99.90;;;;;;5011527;28;20041;-62
2021/01/17 02:32:17;;;;;;;40.27;19.90;;;-0.70;99.90;;;;;;5006927;28;20033;-63
2021/01/17 02:34:44;;;;;;;43.30;20.17;;;-0.80;99.90;;;;;;5020651;28;20026;-61
2021/01/17 02:37:47;;;;;;;43.77;19.63;;;-0.70;99.90;;;;;;5007121;28;20026;-62
2021/01/17 02:40:47;;;;;;;35.53;18.83;;;-0.70;99.90;;;;;;5010755;28;20029;-64
2021/01/17 02:43:13;;;;;;;34.23;18.30;;;-0.70;99.90;;;;;;5008258;28;20030;-63
2021/01/17 02:45:39;;;;;;;41.07;20.93;;;-0.70;99.90;;;;;;5011187;28;20029;-63
2021/01/17 02:48:05;;;;;;;34.97;18.50;;;-0.70;99.90;;;;;;5005666;28;20083;-64
2021/01/17 02:50:30;;;;;;;40.47;20.13;;;-0.70;99.90;;;;;;5011208;28;20029;-63
2021/01/17 02:53:22;;;;;;;37.93;19.63;;;-0.70;99.90;;;;;;4996754;28;20026;-62
2021/01/17 02:55:52;;;;;;;40.97;20.43;;;-0.70;99.90;;;;;;4991360;28;20026;-60
2021/01/17 02:58:19;;;;;;;38.50;19.67;;;-0.80;99.90;;;;;;5007436;28;20025;-63
2021/01/17 03:00:49;;;;;;;38.77;19.60;;;-0.70;99.90;;;;;;4966910;28;20099;-60
2021/01/17 03:03:18;;;;;;;39.80;20.00;;;-0.70;99.90;;;;;;5001980;28;20180;-64
2021/01/17 03:05:44;;;;;;;44.10;19.93;;;-0.70;99.90;;;;;;5009795;28;20017;-63
2021/01/17 03:08:11;;;;;;;38.23;20.53;;;-0.70;99.90;;;;;;5009824;28;20029;-63
2021/01/17 03:10:36;;;;;;;42.57;20.70;;;-0.70;99.90;;;;;;5004171;28;20037;-63
2021/01/17 03:13:02;;;;;;;38.90;18.70;;;-0.70;99.90;;;;;;5009484;28;20186;-61
2021/01/17 03:15:32;;;;;;;38.63;20.67;;;-0.70;99.90;;;;;;5009274;28;20474;-64
2021/01/17 03:17:59;;;;;;;32.37;17.23;;;-0.70;99.90;;;;;;5010220;28;20021;-62
2021/01/17 03:20:24;;;;;;;41.20;20.33;;;-0.70;99.90;;;;;;5010248;28;20022;-63
2021/01/17 03:22:50;;;;;;;40.83;21.57;;;-0.70;99.90;;;;;;5010126;28;20126;-64
2021/01/17 03:25:15;;;;;;;38.37;18.63;;;-0.70;99.90;;;;;;5003559;28;20036;-64
2021/01/17 03:27:41;;;;;;;40.37;20.83;;;-0.60;99.90;;;;;;4997144;28;20446;-62
2021/01/17 03:30:07;;;;;;;38.07;19.03;;;-0.70;99.90;;;;;;5006107;28;20534;-64
2021/01/17 03:32:33;;;;;;;40.73;19.93;;;-0.70;99.90;;;;;;5010045;28;20425;-61
2021/01/17 03:34:58;;;;;;;43.20;20.60;;;-0.70;99.90;;;;;;5010141;28;20031;-63
2021/01/17 03:37:24;;;;;;;44.77;21.13;;;-0.70;99.90;;;;;;5004583;28;20098;-64
2021/01/17 03:39:49;;;;;;;37.33;20.33;;;-0.70;99.90;;;;;;5008256;28;20034;-64
2021/01/17 03:42:15;;;;;;;42.20;20.23;;;-0.70;99.90;;;;;;5005697;28;20087;-64
2021/01/17 03:44:41;;;;;;;43.93;20.53;;;-0.70;99.90;;;;;;5010405;28;20026;-63
2021/01/17 03:47:08;;;;;;;44.60;21.53;;;-0.70;99.90;;;;;;5010393;28;20038;-60
2021/01/17 03:49:34;;;;;;;38.97;19.77;;;-0.60;99.90;;;;;;5005178;28;20053;-64
2021/01/17 03:52:00;;;;;;;43.10;19.97;;;-0.70;99.90;;;;;;5008942;28;20057;-63
2021/01/17 03:54:25;;;;;;;43.87;21.93;;;-0.70;99.90;;;;;;5007038;28;20530;-64
2021/01/17 03:56:51;;;;;;;37.97;18.83;;;-0.70;99.90;;;;;;4999716;28;20128;-64
2021/01/17 03:59:16;;;;;;;40.53;19.50;;;-0.70;99.90;;;;;;5009699;28;20427;-63
2021/01/17 04:01:43;;;;;;;40.63;20.33;;;-0.70;99.90;;;;;;4989134;28;20454;-60
2021/01/17 04:04:09;;;;;;;41.13;19.63;;;-0.70;99.90;;;;;;5009860;28;20026;-64
2021/01/17 04:06:36;;;;;;;39.77;19.50;;;-0.70;99.90;;;;;;5010352;28;20067;-63
2021/01/17 04:09:03;;;;;;;38.77;19.17;;;-0.70;99.90;;;;;;5008612;28;20053;-63
2021/01/17 04:11:28;;;;;;;40.73;18.83;;;-0.70;99.90;;;;;;5004149;28;20037;-63
2021/01/17 04:13:54;;;;;;;38.60;19.33;;;-0.70;99.90;;;;;;5004616;28;20032;-62
2021/01/17 04:16:19;;;;;;;40.47;19.40;;;-0.70;99.90;;;;;;5009551;28;20034;-64
2021/01/17 04:18:45;;;;;;;39.23;19.90;;;-0.70;99.90;;;;;;5012634;28;20089;-62
2021/01/17 04:21:10;;;;;;;42.67;20.23;;;-0.70;99.90;;;;;;5013123;28;20101;-64
2021/01/17 04:23:36;;;;;;;47.33;21.50;;;-0.70;99.90;;;;;;5012554;28;20476;-63
2021/01/17 04:26:01;;;;;;;40.20;20.50;;;-0.70;99.90;;;;;;5013414;28;20034;-63
2021/01/17 04:28:27;;;;;;;42.43;20.97;;;-0.70;99.90;;;;;;5005321;28;20034;-63
2021/01/17 04:30:53;;;;;;;41.40;20.50;;;-0.70;99.90;;;;;;5012261;28;20041;-62
2021/01/17 04:33:19;;;;;;;47.00;19.33;;;-0.70;99.90;;;;;;5027222;28;20026;-64
2021/01/17 04:35:46;;;;;;;37.30;19.07;;;-0.60;99.90;;;;;;5013344;28;20169;-63
2021/01/17 04:38:11;;;;;;;43.63;20.27;;;-0.60;99.90;;;;;;5011465;28;20104;-64
2021/01/17 04:40:37;;;;;;;40.37;18.93;;;-0.60;99.90;;;;;;5008360;28;20113;-64
2021/01/17 04:43:07;;;;;;;38.00;18.47;;;-0.60;99.90;;;;;;5010946;28;20046;-59
2021/01/17 04:45:33;;;;;;;40.67;20.33;;;-0.70;99.90;;;;;;5010981;28;20388;-63
2021/01/17 04:47:59;;;;;;;36.50;18.73;;;-0.70;99.90;;;;;;5012225;28;20033;-64
2021/01/17 04:50:29;;;;;;;35.80;19.47;;;-0.70;99.90;;;;;;5012218;28;20033;-64
2021/01/17 04:52:59;;;;;;;37.30;18.90;;;-0.70;99.90;;;;;;5011282;28;20034;-63
2021/01/17 04:55:25;;;;;;;42.90;19.47;;;-0.70;99.90;;;;;;5007725;28;20071;-64
2021/01/17 04:58:17;;;;;;;41.10;20.43;;;-0.60;99.90;;;;;;5010511;28;20041;-63
2021/01/17 05:00:57;;;;;;;42.57;20.50;;;-0.60;99.90;;;;;;5011436;28;20101;-62
2021/01/17 05:03:34;;;;;;;39.23;19.80;;;-0.60;99.90;;;;;;5027328;28;20022;-63
2021/01/17 05:06:25;;;;;;;39.80;19.23;;;-0.60;99.90;;;;;;4986036;28;20758;-62
2021/01/17 05:09:17;;;;;;;40.37;20.30;;;-0.60;99.90;;;;;;5011552;28;20438;-63
2021/01/17 05:11:50;;;;;;;41.10;20.50;;;-0.60;99.90;;;;;;5007599;28;20558;-61
2021/01/17 05:14:26;;;;;;;42.47;21.27;;;-0.60;99.90;;;;;;5011461;28;20029;-64
2021/01/17 05:16:56;;;;;;;41.03;20.13;;;-0.60;99.90;;;;;;5017294;28;20034;-62
2021/01/17 05:19:22;;;;;;;40.83;20.40;;;-0.60;99.90;;;;;;5011605;28;20025;-64
2021/01/17 05:21:49;;;;;;;39.47;19.63;;;-0.60;99.90;;;;;;5006631;28;20451;-63
2021/01/17 05:24:18;;;;;;;43.67;21.03;;;-0.60;99.90;;;;;;5012122;28;20068;-62
2021/01/17 05:26:57;;;;;;;38.97;19.70;;;-0.60;99.90;;;;;;5004216;28;20056;-64
2021/01/17 05:29:25;;;;;;;40.40;19.33;;;-0.60;99.90;;;;;;5010051;28;20034;-64
2021/01/17 05:31:56;;;;;;;41.53;19.80;;;-0.60;99.90;;;;;;5005396;28;20057;-63
2021/01/17 05:34:23;;;;;;;36.73;18.50;;;-0.60;99.90;;;;;;5011932;28;20022;-61
2021/01/17 05:37:02;;;;;;;42.77;20.20;;;-0.50;99.90;;;;;;5006600;28;20022;-64
2021/01/17 05:39:28;;;;;;;43.47;20.03;;;-0.60;99.90;;;;;;5010525;28;20018;-64
2021/01/17 05:42:03;;;;;;;41.87;20.20;;;-0.60;99.90;;;;;;5009915;28;20045;-64
2021/01/17 05:44:30;;;;;;;40.03;19.73;;;-0.60;99.90;;;;;;5010896;28;21356;-63
2021/01/17 05:47:05;;;;;;;41.87;21.30;;;-0.60;99.90;;;;;;5009502;28;20600;-63
2021/01/17 05:49:31;;;;;;;41.93;20.47;;;-0.60;99.90;;;;;;5008917;28;20029;-63
2021/01/17 05:52:13;;;;;;;41.70;20.97;;;-0.60;99.90;;;;;;5003237;28;20119;-63
2021/01/17 05:54:41;;;;;;;37.37;19.63;;;-0.60;99.90;;;;;;5003221;28;20034;-63
2021/01/17 05:57:23;;;;;;;46.67;22.13;;;-0.60;99.90;;;;;;5004518;28;20102;-64
2021/01/17 05:59:49;;;;;;;38.67;18.83;;;-0.50;99.90;;;;;;5011520;28;20565;-63
2021/01/17 06:02:17;;;;;;;41.43;21.77;;;-0.50;99.90;;;;;;4961492;28;20618;-63
2021/01/17 06:04:45;;;;;;;44.20;21.00;;;-0.50;99.90;;;;;;5006376;28;20033;-62
2021/01/17 06:07:13;;;;;;;46.73;23.10;;;-0.50;99.90;;;;;;4984188;28;20046;-62
2021/01/17 06:09:39;;;;;;;39.70;18.70;;;-0.50;99.90;;;;;;5006411;28;20488;-63
2021/01/17 06:12:06;;;;;;;41.93;20.77;;;-0.50;99.90;;;;;;5008335;28;20066;-63
2021/01/17 06:14:31;;;;;;;41.67;20.33;;;-0.50;99.90;;;;;;5011709;28;20022;-63
2021/01/17 06:17:00;;;;;;;42.97;21.57;;;-0.50;99.90;;;;;;5011182;28;20389;-63
2021/01/17 06:19:34;;;;;;;44.30;21.57;;;-0.50;99.90;;;;;;5009092;28;20509;-62
2021/01/17 06:22:03;;;;;;;42.93;21.57;;;-0.50;99.90;;;;;;5026322;28;20073;-59
2021/01/17 06:24:34;;;;;;;42.47;19.80;;;-0.50;99.90;;;;;;5007349;28;20019;-59
2021/01/17 06:27:02;;;;;;;47.33;22.20;;;-0.50;99.90;;;;;;5008180;28;20037;-63
2021/01/17 06:29:41;;;;;;;40.30;20.67;;;-0.50;99.90;;;;;;5011034;28;20072;-64
2021/01/17 06:32:30;;;;;;;39.37;19.73;;;-0.50;99.90;;;;;;5005665;28;20038;-63
2021/01/17 06:34:57;;;;;;;37.97;19.97;;;-0.50;99.90;;;;;;4998231;28;20034;-62
2021/01/17 06:37:26;;;;;;;39.53;19.73;;;-0.50;99.90;;;;;;5005928;28;20018;-64
2021/01/17 06:39:53;;;;;;;40.50;20.47;;;-0.50;99.90;;;;;;5010026;28;20037;-63
2021/01/17 06:42:21;;;;;;;44.07;20.87;;;-0.50;99.90;;;;;;5006355;28;20040;-62
2021/01/17 06:44:49;;;;;;;41.47;21.50;;;-0.40;99.90;;;;;;5010974;28;20030;-62
2021/01/17 06:47:26;;;;;;;44.73;20.23;;;-0.40;99.90;;;;;;5010374;28;20541;-63
2021/01/17 06:49:54;;;;;;;41.70;19.93;;;-0.40;99.90;;;;;;5007792;28;20133;-63
2021/01/17 06:52:21;;;;;;;37.80;18.70;;;-0.40;99.90;;;;;;5009636;28;20018;-63
2021/01/17 06:54:52;;;;;;;40.27;20.30;;;-0.40;99.90;;;;;;5009303;28;20054;-63
2021/01/17 06:57:19;;;;;;;46.73;20.87;;;-0.40;99.90;;;;;;5007665;28;20304;-62
2021/01/17 06:59:50;;;;;;;42.53;20.47;;;-0.40;99.90;;;;;;5010215;28;20064;-62
2021/01/17 07:02:24;;;;;;;42.93;20.03;;;-0.40;99.90;;;;;;5002725;28;20112;-63
2021/01/17 07:04:55;;;;;;;38.67;20.83;;;-0.30;99.90;;;;;;5010832;28;20700;-63
2021/01/17 07:07:39;;;;;;;40.53;19.40;;;-0.40;99.90;;;;;;4992465;28;20042;-63
2021/01/17 07:10:06;;;;;;;42.30;20.43;;;-0.40;99.90;;;;;;5006231;28;20025;-64
2021/01/17 07:12:35;;;;;;;45.07;20.30;;;-0.40;99.90;;;;;;5008803;28;20410;-64
2021/01/17 07:15:05;;;;;;;44.03;21.03;;;-0.40;99.90;;;;;;5010546;28;20054;-62
2021/01/17 07:17:33;;;;;;;43.00;19.40;;;-0.40;99.90;;;;;;5008200;28;20108;-64
2021/01/17 07:20:04;;;;;;;43.83;21.27;;;-0.30;99.90;;;;;;5007947;28;20041;-63
2021/01/17 07:22:31;;;;;;;46.70;22.60;;;-0.30;99.90;;;;;;5004361;28;20487;-62
2021/01/17 07:24:58;;;;;;;46.10;20.60;;;-0.30;99.90;;;;;;5008249;28;20135;-63
2021/01/17 07:27:46;;;;;;;46.23;21.93;;;-0.30;99.90;;;;;;5004255;28;20022;-63
2021/01/17 07:30:19;;;;;;;43.93;21.30;;;-0.20;99.90;;;;;;5006858;28;20038;-64
2021/01/17 07:33:04;;;;;;;39.93;19.53;;;-0.20;99.90;;;;;;5006903;28;20013;-63
2021/01/17 07:35:39;;;;;;;45.57;21.73;;;-0.20;99.90;;;;;;5005187;28;20022;-63
2021/01/17 07:38:16;;;;;;;41.87;20.70;;;-0.20;99.90;;;;;;5002636;28;20022;-64
2021/01/17 07:40:49;;;;;;;44.97;21.70;;;-0.20;99.90;;;;;;5008259;28;20032;-63
2021/01/17 07:43:16;;;;;;;47.03;23.40;;;-0.20;99.90;;;;;;5004210;28;20028;-64
2021/01/17 07:45:41;;;;;;;41.07;21.70;;;-0.10;99.90;;;;;;5007733;28;20029;-59
2021/01/17 07:48:12;;;;;;;47.23;23.47;;;-0.10;99.90;;;;;;5008641;28;20030;-64
2021/01/17 07:51:02;;;;;;;47.77;22.33;;;-0.10;99.90;;;;;;5002663;28;20027;-64
2021/01/17 07:53:37;;;;;;;43.07;21.70;;;-0.10;99.90;;;;;;5011488;28;20445;-63
2021/01/17 07:56:04;;;;;;;46.27;22.23;;;-0.10;99.90;;;;;;5009648;28;20022;-62
2021/01/17 07:58:33;;;;;;;43.67;22.00;;;-0.10;99.90;;;;;;5011472;28;20026;-63
2021/01/17 08:01:00;;;;;;;47.47;22.20;;;-0.10;99.90;;;;;;5014240;28;20034;-63
2021/01/17 08:03:26;;;;;;;50.27;22.30;;;0.00;99.90;;;;;;5009951;28;20033;-63
2021/01/17 08:05:56;;;;;;;44.00;22.83;;;0.00;99.90;;;;;;5012962;28;20053;-63
2021/01/17 08:08:44;;;;;;;42.43;21.23;;;0.00;99.90;;;;;;4993177;28;20046;-64
2021/01/17 08:11:10;;;;;;;38.37;20.37;;;0.00;99.90;;;;;;5008094;28;20038;-62
2021/01/17 08:13:35;;;;;;;46.33;22.87;;;0.00;99.90;;;;;;5011672;28;20056;-63
2021/01/17 08:16:12;;;;;;;46.60;22.70;;;0.00;99.90;;;;;;5013879;28;20061;-63
2021/01/17 08:18:39;;;;;;;42.72;22.95;;;0.00;99.90;;;;;;5009464;28;20030;-63
2021/01/17 08:21:23;;;;;;;44.53;22.40;;;0.10;99.90;;;;;;5006968;28;20114;-64
2021/01/17 08:24:07;;;;;;;;;;;0.00;99.90;;;;;;5008250;28;20557;-63
2021/01/17 08:27:01;;;;;;;50.50;22.70;;;0.00;99.90;;;;;;5010094;28;19917;-64
2021/01/17 08:29:27;;;;;;;45.38;24.15;;;-0.10;99.90;;;;;;5008379;28;20030;-63
2021/01/17 08:31:53;;;;;;;54.05;24.63;;;0.00;99.90;;;;;;5012744;28;20038;-64
2021/01/17 08:34:27;;;;;;;45.22;23.08;;;0.10;99.90;;;;;;5013166;28;20014;-64
2021/01/17 08:36:54;;;;;;;48.67;23.20;;;0.10;99.90;;;;;;5009088;28;20053;-65
2021/01/17 08:39:41;;;;;;;51.08;23.20;;;0.10;99.90;;;;;;5009979;28;20034;-64
2021/01/17 08:42:30;;;;;;;55.90;23.52;;;0.10;99.90;;;;;;5009374;28;20069;-64
2021/01/17 08:44:56;;;;;;;47.63;23.05;;;0.20;99.90;;;;;;5011607;28;20033;-64
2021/01/17 08:47:23;;;;;;;48.60;24.63;;;0.20;99.90;;;;;;5012699;28;20439;-65
2021/01/17 08:49:49;;;;;;;53.63;24.35;;;0.30;99.90;;;;;;5010574;28;20033;-64
2021/01/17 08:52:30;;;;;;;50.08;23.65;;;0.40;99.90;;;;;;5007998;28;20501;-64
2021/01/17 08:54:56;;;;;;;46.47;22.77;;;0.40;99.90;;;;;;5010842;28;20039;-65
2021/01/17 08:57:38;;;;;;;50.55;23.15;;;0.40;99.90;;;;;;5009257;28;20025;-64
2021/01/17 09:00:11;;;;;;;49.33;23.77;;;0.50;99.90;;;;;;5010200;28;20168;-64
2021/01/17 09:02:38;;;;;;;51.70;23.45;;;0.50;99.90;;;;;;5012312;28;20109;-64
2021/01/17 09:05:05;;;;;;;46.83;23.05;;;0.50;99.90;;;;;;5011860;28;20060;-65
2021/01/17 09:07:36;;;;;;;51.58;23.92;;;0.50;99.90;;;;;;5010809;28;20022;-65
2021/01/17 09:10:08;;;;;;;49.78;23.85;;;0.40;99.90;;;;;;4997003;28;20043;-65
2021/01/17 09:12:35;;;;;;;49.53;24.73;;;0.50;99.90;;;;;;5009457;28;20037;-65
2021/01/17 09:15:13;;;;;;;49.58;24.67;;;0.40;99.90;;;;;;5012216;28;20034;-64
2021/01/17 09:17:39;;;;;;;46.72;23.17;;;0.50;99.90;;;;;;5012496;28;20369;-65
2021/01/17 09:20:13;;;;;;;45.53;24.45;;;0.50;99.90;;;;;;5008876;28;20023;-64
2021/01/17 09:22:42;;;;;;;51.90;24.92;;;0.50;99.90;;;;;;5008003;28;20044;-65
2021/01/17 09:25:10;;;;;;;47.50;22.90;;;0.50;99.90;;;;;;5004380;28;20041;-65
2021/01/17 09:27:38;;;;;;;44.58;22.70;;;0.50;99.90;;;;;;5004503;28;20041;-64
2021/01/17 09:30:06;;;;;;;51.25;24.00;;;0.60;99.90;;;;;;5012252;28;20030;-66
2021/01/17 09:32:34;;;;;;;47.60;22.25;;;0.70;99.90;;;;;;5009809;28;20407;-65
2021/01/17 09:35:04;;;;;;;44.35;23.70;;;0.80;99.90;;;;;;5012469;28;20053;-64
2021/01/17 09:37:34;;;;;;;45.92;23.90;;;0.90;99.90;;;;;;5005789;28;20026;-65
2021/01/17 09:40:00;;;;;;;45.25;22.17;;;1.00;99.90;;;;;;5006385;28;20122;-63
2021/01/17 09:42:26;;;;;;;47.20;23.27;;;1.10;99.90;;;;;;5005496;28;20105;-65
2021/01/17 09:45:00;;;;;;;48.63;23.27;;;1.10;99.90;;;;;;5012257;28;20041;-65
2021/01/17 09:47:28;;;;;;;43.10;22.90;;;1.10;99.90;;;;;;5009697;28;20109;-65
2021/01/17 09:49:54;;;;;;;39.97;20.42;;;1.20;99.90;;;;;;5009852;28;20517;-61
2021/01/17 09:52:24;;;;;;;47.40;23.17;;;1.10;99.90;;;;;;5001521;28;20026;-65
2021/01/17 09:54:53;;;;;;;44.95;23.35;;;1.20;99.90;;;;;;5001342;28;20502;-65
2021/01/17 09:57:20;;;;;;;45.15;21.73;;;1.20;99.90;;;;;;5007523;28;20133;-65
2021/01/17 09:59:48;;;;;;;41.80;21.92;;;1.20;99.90;;;;;;5010838;28;20448;-61
2021/01/17 10:02:17;;;;;;;44.47;23.33;;;1.20;99.90;;;;;;5009193;28;20064;-64
2021/01/17 10:04:43;;;;;;;41.97;21.65;;;1.40;99.90;;;;;;5009737;28;20030;-63
2021/01/17 10:07:14;;;;;;;41.83;20.85;;;1.40;99.90;;;;;;4999176;28;21321;-64
2021/01/17 10:09:40;;;;;;;43.05;21.52;;;1.50;99.90;;;;;;4990085;28;20042;-65
2021/01/17 10:12:06;;;;;;;44.67;23.83;;;1.50;99.90;;;;;;5001512;28;20443;-63
2021/01/17 10:14:33;;;;;;;44.63;23.38;;;1.50;99.90;;;;;;5006661;28;20018;-65
2021/01/17 10:17:02;;;;;;;46.38;23.08;;;1.40;99.90;;;;;;5009097;28;20038;-61
2021/01/17 10:19:32;;;;;;;49.05;24.45;;;1.30;99.90;;;;;;5010442;28;20026;-62
2021/01/17 10:21:59;;;;;;;48.72;23.25;;;1.30;99.90;;;;;;4998614;28;20037;-63
2021/01/17 10:24:28;;;;;;;42.67;22.63;;;1.40;99.90;;;;;;5002489;28;20054;-65
2021/01/17 10:26:58;;;;;;;43.63;21.88;;;1.30;99.90;;;;;;5005180;28;20037;-63
2021/01/17 10:29:26;;;;;;;48.45;24.27;;;1.30;99.90;;;;;;5009861;28;20076;-62
2021/01/17 10:31:56;;;;;;;43.42;22.42;;;1.40;99.90;;;;;;5013494;28;20483;-63
2021/01/17 10:34:24;;;;;;;43.80;22.85;;;1.60;99.90;;;;;;5005777;28;20361;-64
2021/01/17 10:36:54;;;;;;;41.78;21.95;;;1.70;99.90;;;;;;4996885;28;20481;-64
2021/01/17 10:39:20;;;;;;;42.92;21.33;;;1.80;99.90;;;;;;5001499;28;20030;-65
2021/01/17 10:41:46;;;;;;;52.47;28.52;;;1.80;99.90;;;;;;5002718;28;20140;-64
2021/01/17 10:44:15;;;;;;;49.25;26.60;;;1.90;99.90;;;;;;5023905;28;20554;-62
2021/01/17 10:46:49;;;;;;;49.35;24.50;;;1.90;99.90;;;;;;5005909;28;20026;-63
2021/01/17 10:49:20;;;;;;;54.25;29.73;;;1.90;99.90;;;;;;5002656;28;20563;-65
2021/01/17 10:51:52;;;;;;;52.92;28.65;;;1.90;99.90;;;;;;5002394;28;20022;-61
2021/01/17 10:54:23;;;;;;;45.28;24.00;;;2.00;99.90;;;;;;4999531;28;20038;-64
2021/01/17 10:56:50;;;;;;;46.80;24.13;;;2.00;99.90;;;;;;4997829;28;20144;-63
2021/01/17 10:59:22;;;;;;;48.05;25.30;;;2.10;99.90;;;;;;5001767;28;20029;-62
2021/01/17 11:01:47;;;;;;;45.20;24.20;;;2.30;99.90;;;;;;5003887;28;20049;-62
2021/01/17 11:04:15;;;;;;;53.42;30.65;;;2.40;99.90;;;;;;4997733;28;20053;-61
2021/01/17 11:06:43;;;;;;;44.08;24.17;;;2.50;99.90;;;;;;5000954;28;20447;-62
2021/01/17 11:09:13;;;;;;;44.00;24.90;;;2.50;99.90;;;;;;4991525;28;20053;-63
2021/01/17 11:11:47;;;;;;;41.92;23.15;;;2.60;99.90;;;;;;5006196;28;20041;-64
2021/01/17 11:14:14;;;;;;;40.72;21.58;;;2.70;99.90;;;;;;5001375;28;20033;-63
2021/01/17 11:16:39;;;;;;;44.85;24.27;;;2.80;99.90;;;;;;5003542;28;20440;-61
2021/01/17 11:19:07;;;;;;;47.53;24.30;;;2.60;99.90;;;;;;5004402;28;20029;-61
2021/01/17 11:21:32;;;;;;;44.67;23.38;;;2.40;99.90;;;;;;5019533;28;20046;-64
2021/01/17 11:23:59;;;;;;;49.63;25.70;;;2.50;99.90;;;;;;5005458;28;20036;-63
2021/01/17 11:26:26;;;;;;;48.45;25.58;;;2.30;99.90;;;;;;5006959;28;20030;-64
2021/01/17 11:28:53;;;;;;;42.80;23.40;;;2.30;99.90;;;;;;5009200;28;20511;-62
2021/01/17 11:31:20;;;;;;;45.08;22.50;;;2.20;99.90;;;;;;5009052;28;20621;-63
2021/01/17 11:33:47;;;;;;;45.58;23.10;;;2.30;99.90;;;;;;5008006;28;20026;-64
2021/01/17 11:36:21;;;;;;;41.67;23.00;;;2.30;99.90;;;;;;5008367;28;20499;-64
2021/01/17 11:38:53;;;;;;;42.30;23.05;;;2.40;99.90;;;;;;5008303;28;20364;-65
2021/01/17 11:41:20;;;;;;;44.83;21.98;;;2.50;99.90;;;;;;5008702;28;20026;-63
2021/01/17 11:43:46;;;;;;;40.65;22.80;;;2.50;99.90;;;;;;5008263;28;20030;-63
2021/01/17 11:46:13;;;;;;;46.10;22.77;;;2.60;99.90;;;;;;5010810;28;20080;-64
2021/01/17 11:48:40;;;;;;;44.20;22.25;;;2.60;99.90;;;;;;5008437;28;20030;-63
2021/01/17 11:51:07;;;;;;;47.10;23.40;;;2.60;99.90;;;;;;5008176;28;20034;-64
2021/01/17 11:53:33;;;;;;;42.67;23.52;;;2.60;99.90;;;;;;5009025;28;20511;-63
2021/01/17 11:55:59;;;;;;;46.75;22.42;;;2.60;99.90;;;;;;5010067;28;20030;-63
2021/01/17 11:58:26;;;;;;;44.88;24.35;;;2.80;99.90;;;;;;5005698;28;20025;-64
2021/01/17 12:00:57;;;;;;;45.58;23.45;;;2.70;99.90;;;;;;5007480;28;20045;-63
2021/01/17 12:03:23;;;;;;;40.60;22.27;;;2.60;99.90;;;;;;5009841;28;20060;-63
2021/01/17 12:06:01;;;;;;;42.10;22.42;;;2.40;99.90;;;;;;5012495;28;20084;-64
2021/01/17 12:08:46;;;;;;;40.17;22.88;;;2.40;99.90;;;;;;5007908;28;20038;-67
2021/01/17 12:11:24;;;;;;;42.35;22.38;;;2.30;99.90;;;;;;4998859;28;20041;-63
2021/01/17 12:13:52;;;;;;;44.13;23.83;;;2.40;99.90;;;;;;5004533;28;20026;-63
2021/01/17 12:16:35;;;;;;;43.58;21.67;;;2.40;99.90;;;;;;5009595;28;20447;-62
2021/01/17 12:19:01;;;;;;;41.63;22.77;;;2.50;99.90;;;;;;5010661;28;20030;-64
2021/01/17 12:21:28;;;;;;;47.72;24.00;;;2.60;99.90;;;;;;5009217;28;20512;-63
2021/01/17 12:23:58;;;;;;;45.33;25.25;;;2.60;99.90;;;;;;5001508;28;20041;-64
2021/01/17 12:26:25;;;;;;;53.30;26.63;;;2.50;99.90;;;;;;5006389;28;20037;-64
2021/01/17 12:28:50;;;;;;;64.50;33.60;;;2.50;99.90;;;;;;5006676;28;20399;-62
2021/01/17 12:31:18;;;;;;;46.90;24.73;;;2.60;99.90;;;;;;5008528;28;20507;-64
2021/01/17 12:33:44;;;;;;;108.65;44.85;;;2.50;99.90;;;;;;5005594;28;20045;-62
2021/01/17 12:36:12;;;;;;;54.75;25.02;;;2.40;99.90;;;;;;5007267;28;20029;-63
2021/01/17 12:38:39;;;;;;;46.80;23.92;;;2.30;99.90;;;;;;5007551;28;20040;-65
2021/01/17 12:41:15;;;;;;;47.20;22.55;;;2.30;99.90;;;;;;5010281;28;20129;-64
2021/01/17 12:43:43;;;;;;;49.78;23.00;;;2.30;99.90;;;;;;5008254;28;20065;-63